createdAt,value
2022-12-31T00:01:11.112Z,99896.66
2022-12-31T00:03:40.295Z,99891.66
2022-12-31T00:06:49.594Z,99889.45
2022-12-31T00:09:17.769Z,99887.13
2022-12-31T00:11:44.918Z,99893.02
2022-12-31T00:14:13.284Z,99894.08
2022-12-31T00:16:42.067Z,99895.41
2022-12-31T00:19:11.193Z,99891.61
2022-12-31T00:21:39.554Z,99888.29
2022-12-31T00:24:07.922Z,99882.66
2022-12-31T00:26:35.671Z,99887.81
2022-12-31T00:29:04.199Z,99882.89
2022-12-31T00:31:34.145Z,99878.98
2022-12-31T00:34:01.927Z,99877.42
2022-12-31T00:36:37.966Z,99875.05
2022-12-31T00:39:07.784Z,99878.83
2022-12-31T00:41:34.625Z,99884.30
2022-12-31T00:44:02.646Z,99889.89
2022-12-31T00:46:31.330Z,99897.58
2022-12-31T00:48:58.734Z,99899.45
2022-12-31T00:51:26.925Z,99896.71
2022-12-31T00:53:55.819Z,99898.27
2022-12-31T00:56:26.380Z,99901.89
2022-12-31T00:58:54.214Z,99897.91
2022-12-31T01:01:24.392Z,99904.63
2022-12-31T01:03:56.353Z,99908.94
2022-12-31T01:06:24.685Z,99906.41
2022-12-31T01:08:53.215Z,99896.11
2022-12-31T01:11:28.614Z,99889.00
2022-12-31T01:14:16.474Z,99887.63
2022-12-31T01:16:49.327Z,99881.67
2022-12-31T01:19:22.731Z,99878.11
2022-12-31T01:21:52.029Z,99880.20
2022-12-31T01:24:20.317Z,99877.96
2022-12-31T01:26:50.840Z,99875.89
2022-12-31T01:29:18.625Z,99875.33
2022-12-31T01:31:45.852Z,99875.89
2022-12-31T01:34:13.203Z,99885.79
2022-12-31T01:36:40.666Z,99887.45
2022-12-31T01:39:08.960Z,99897.17
2022-12-31T01:41:44.902Z,99901.02
2022-12-31T01:44:11.977Z,99904.90
2022-12-31T01:46:52.895Z,99904.38
2022-12-31T01:49:37.373Z,99908.77
2022-12-31T01:52:10.781Z,99922.13
2022-12-31T01:54:44.126Z,99925.98
2022-12-31T01:57:12.038Z,99927.92
2022-12-31T01:59:40.507Z,99929.28
2022-12-31T02:02:07.526Z,99928.77
2022-12-31T02:04:34.618Z,99926.02
2022-12-31T02:07:07.611Z,99928.10
2022-12-31T02:09:38.700Z,99928.38
2022-12-31T02:12:08.077Z,99930.70
2022-12-31T02:14:42.249Z,99930.67
2022-12-31T02:17:17.884Z,99924.66
2022-12-31T02:20:01.004Z,99925.34
2022-12-31T02:22:43.118Z,99929.06
2022-12-31T02:25:52.696Z,99931.57
2022-12-31T02:29:05.892Z,99925.73
2022-12-31T02:31:35.355Z,99928.97
2022-12-31T02:34:21.222Z,99932.34
2022-12-31T02:36:53.223Z,99934.19
2022-12-31T02:39:21.152Z,99932.68
2022-12-31T02:41:50.224Z,99940.86
2022-12-31T02:44:32.124Z,99950.99
2022-12-31T02:47:08.983Z,99953.09
2022-12-31T02:49:54.371Z,99955.54
2022-12-31T02:52:59.405Z,99953.65
2022-12-31T02:55:26.526Z,99954.13
2022-12-31T02:58:22.505Z,99945.23
2022-12-31T03:01:13.457Z,99947.00
2022-12-31T03:03:40.996Z,99943.14
2022-12-31T03:06:09.033Z,99947.13
2022-12-31T03:08:55.864Z,99947.77
2022-12-31T03:11:41.312Z,99950.71
2022-12-31T03:14:08.467Z,99948.14
2022-12-31T03:16:35.536Z,99947.79
2022-12-31T03:19:23.025Z,99952.02
2022-12-31T03:22:09.059Z,99951.95
2022-12-31T03:24:54.308Z,99948.38
2022-12-31T03:27:21.242Z,99965.15
2022-12-31T03:29:48.083Z,99971.36
2022-12-31T03:32:15.141Z,99973.95
2022-12-31T03:34:41.910Z,99979.74
2022-12-31T03:37:08.800Z,99982.73
2022-12-31T03:39:35.658Z,99983.36
2022-12-31T03:42:03.427Z,99987.19
2022-12-31T03:44:30.333Z,99984.20
2022-12-31T03:46:57.119Z,99991.70
2022-12-31T03:49:25.587Z,99988.20
2022-12-31T03:51:52.871Z,99983.90
2022-12-31T03:54:20.126Z,99982.48
2022-12-31T03:56:49.441Z,99983.98
2022-12-31T03:59:16.636Z,99976.48
2022-12-31T04:01:43.765Z,99972.59
2022-12-31T04:04:10.829Z,99968.91
2022-12-31T04:06:37.989Z,99961.36
2022-12-31T04:09:04.746Z,99956.05
2022-12-31T04:11:31.679Z,99963.75
2022-12-31T04:13:58.822Z,99963.61
2022-12-31T04:16:26.176Z,99961.58
2022-12-31T04:18:53.112Z,99947.46
2022-12-31T04:21:20.070Z,99945.56
2022-12-31T04:23:47.029Z,99938.63
2022-12-31T04:26:14.045Z,99933.95
2022-12-31T04:28:40.754Z,99937.05
2022-12-31T04:31:07.739Z,99936.14
2022-12-31T04:33:34.552Z,99949.91
2022-12-31T04:36:02.454Z,99960.07
2022-12-31T04:38:29.256Z,99965.81
2022-12-31T04:41:14.578Z,99971.86
2022-12-31T04:43:42.024Z,99969.73
2022-12-31T04:46:08.975Z,99971.60
2022-12-31T04:48:35.947Z,99965.83
2022-12-31T04:51:03.543Z,99962.34
2022-12-31T04:53:31.127Z,99968.27
2022-12-31T04:55:57.993Z,99972.47
2022-12-31T04:58:25.327Z,99974.45
2022-12-31T05:00:54.077Z,99972.45
2022-12-31T05:03:23.319Z,99969.84
2022-12-31T05:05:50.568Z,99971.06
2022-12-31T05:08:17.829Z,99961.33
2022-12-31T05:10:47.848Z,99960.90
2022-12-31T05:13:15.825Z,99957.28
2022-12-31T05:15:42.962Z,99953.23
2022-12-31T05:18:10.012Z,99947.89
2022-12-31T05:20:37.060Z,99954.71
2022-12-31T05:23:04.006Z,99957.99
2022-12-31T05:25:31.574Z,99953.33
2022-12-31T05:27:58.610Z,99962.39
2022-12-31T05:30:25.668Z,99965.33
2022-12-31T05:32:53.527Z,99972.38
2022-12-31T05:35:20.579Z,99970.98
2022-12-31T05:37:47.521Z,99975.17
2022-12-31T05:40:14.601Z,99968.23
2022-12-31T05:42:41.418Z,99964.99
2022-12-31T05:45:08.963Z,99963.41
2022-12-31T05:47:35.795Z,99959.21
2022-12-31T05:50:02.866Z,99952.23
2022-12-31T05:52:29.804Z,99963.14
2022-12-31T05:54:56.655Z,99963.89
2022-12-31T05:57:23.789Z,99958.96
2022-12-31T05:59:53.202Z,99965.07
2022-12-31T06:02:21.212Z,99966.59
2022-12-31T06:04:48.453Z,99971.09
2022-12-31T06:07:15.269Z,99976.73
2022-12-31T06:09:41.995Z,99974.54
2022-12-31T06:12:09.251Z,99969.00
2022-12-31T06:14:39.577Z,99955.50
2022-12-31T06:17:09.703Z,99968.68
2022-12-31T06:19:36.651Z,99973.35
2022-12-31T06:22:03.601Z,99981.30
2022-12-31T06:24:30.536Z,99996.92
2022-12-31T06:26:57.602Z,99992.05
2022-12-31T06:29:25.546Z,99994.33
2022-12-31T06:31:52.403Z,99976.95
2022-12-31T06:34:19.332Z,99989.05
2022-12-31T06:36:46.200Z,99998.20
2022-12-31T06:39:13.033Z,99996.27
2022-12-31T06:41:41.090Z,99991.48
2022-12-31T06:44:08.152Z,99988.06
2022-12-31T06:46:35.031Z,99990.48
2022-12-31T06:49:01.840Z,99981.54
2022-12-31T06:51:28.563Z,99983.66
2022-12-31T06:53:55.403Z,99986.38
2022-12-31T06:56:33.062Z,99990.45
2022-12-31T06:59:02.280Z,99996.04
2022-12-31T07:01:47.996Z,100010.77
2022-12-31T07:04:23.865Z,100006.86
2022-12-31T07:07:16.500Z,100002.55
2022-12-31T07:10:11.524Z,99994.33
2022-12-31T07:12:57.083Z,100007.83
2022-12-31T07:15:57.461Z,100014.77
2022-12-31T07:18:50.265Z,100014.22
2022-12-31T07:21:23.675Z,100013.98
2022-12-31T07:23:51.125Z,100014.09
2022-12-31T07:26:55.954Z,100011.98
2022-12-31T07:29:38.686Z,100026.42
2022-12-31T07:32:30.630Z,100031.83
2022-12-31T07:35:16.400Z,100030.03
2022-12-31T07:37:46.114Z,100023.83
2022-12-31T07:40:50.923Z,100021.03
2022-12-31T07:43:30.197Z,100018.89
2022-12-31T07:46:25.655Z,100015.52
2022-12-31T07:48:53.360Z,100019.95
2022-12-31T07:51:20.894Z,100026.18
2022-12-31T07:53:47.972Z,100025.50
2022-12-31T07:56:15.089Z,100016.73
2022-12-31T07:58:50.533Z,100025.94
2022-12-31T08:01:30.192Z,100036.34
2022-12-31T08:04:07.476Z,100042.16
2022-12-31T08:07:29.716Z,100046.16
2022-12-31T08:10:03.411Z,100047.02
2022-12-31T08:12:33.954Z,100049.79
2022-12-31T08:15:01.706Z,100043.51
2022-12-31T08:17:28.895Z,100044.14
2022-12-31T08:19:56.225Z,100039.45
2022-12-31T08:22:55.496Z,100035.08
2022-12-31T08:25:26.530Z,100033.83
2022-12-31T08:28:00.647Z,100037.05
2022-12-31T08:30:36.524Z,100048.01
2022-12-31T08:33:09.196Z,100047.66
2022-12-31T08:35:54.892Z,100043.91
2022-12-31T08:38:36.857Z,100035.07
2022-12-31T08:41:23.609Z,100038.41
2022-12-31T08:44:28.843Z,100036.25
2022-12-31T08:47:02.065Z,100025.48
2022-12-31T08:49:32.215Z,100025.41
2022-12-31T08:52:00.808Z,100023.02
2022-12-31T08:54:32.183Z,100008.67
2022-12-31T08:57:35.580Z,100009.74
2022-12-31T09:00:09.722Z,100013.13
2022-12-31T09:02:51.407Z,100010.41
2022-12-31T09:05:25.197Z,100005.42
2022-12-31T09:08:30.038Z,100007.96
2022-12-31T09:11:16.391Z,100005.86
2022-12-31T09:13:58.008Z,100009.58
2022-12-31T09:16:24.869Z,100014.23
2022-12-31T09:18:51.697Z,100021.76
2022-12-31T09:21:19.272Z,100015.97
2022-12-31T09:23:46.535Z,100020.44
2022-12-31T09:26:39.598Z,100019.75
2022-12-31T09:29:28.242Z,100021.59
2022-12-31T09:32:04.529Z,100021.15
2022-12-31T09:35:06.981Z,100019.83
2022-12-31T09:37:54.393Z,100016.45
2022-12-31T09:40:45.717Z,100013.21
2022-12-31T09:43:31.397Z,100020.73
2022-12-31T09:46:17.133Z,100014.52
2022-12-31T09:48:58.156Z,100011.88
2022-12-31T09:51:30.240Z,100013.06
2022-12-31T09:54:12.432Z,100017.08
2022-12-31T09:56:45.010Z,100025.63
2022-12-31T09:59:38.579Z,100024.41
2022-12-31T10:02:28.332Z,100022.56
2022-12-31T10:05:19.412Z,100015.00
2022-12-31T10:07:55.547Z,100004.98
2022-12-31T10:10:30.391Z,100005.10
2022-12-31T10:13:09.017Z,100001.14
2022-12-31T10:15:39.017Z,99996.89
2022-12-31T10:18:28.837Z,100000.46
2022-12-31T10:21:33.126Z,99987.13
2022-12-31T10:24:35.576Z,99992.01
2022-12-31T10:27:30.075Z,99989.79
2022-12-31T10:29:57.075Z,99991.92
2022-12-31T10:32:39.338Z,99995.38
2022-12-31T10:35:28.402Z,99994.38
2022-12-31T10:38:20.442Z,100001.77
2022-12-31T10:41:25.173Z,99999.69
2022-12-31T10:44:25.351Z,99995.58
2022-12-31T10:47:29.208Z,99998.05
2022-12-31T10:50:30.033Z,99993.44
2022-12-31T10:53:16.445Z,99995.16
2022-12-31T10:55:46.256Z,99997.33
2022-12-31T10:58:34.701Z,99996.58
2022-12-31T11:01:13.137Z,99994.63
2022-12-31T11:04:20.925Z,99998.91
2022-12-31T11:07:15.455Z,99990.80
2022-12-31T11:09:57.522Z,99999.80
2022-12-31T11:12:55.900Z,100000.59
2022-12-31T11:15:35.160Z,99990.14
2022-12-31T11:18:19.903Z,99988.16
2022-12-31T11:21:07.132Z,99983.24
2022-12-31T11:23:52.799Z,99980.53
2022-12-31T11:26:40.021Z,99969.27
2022-12-31T11:29:31.980Z,99970.81
2022-12-31T11:32:02.056Z,99968.27
2022-12-31T11:34:38.651Z,99969.79
2022-12-31T11:37:47.886Z,99962.32
2022-12-31T11:40:27.418Z,99966.54
2022-12-31T11:43:00.415Z,99950.69
2022-12-31T11:46:19.643Z,99954.15
2022-12-31T11:49:31.781Z,99942.66
2022-12-31T11:52:17.097Z,99946.70
2022-12-31T11:55:23.209Z,99947.25
2022-12-31T11:57:51.949Z,99951.35
2022-12-31T12:00:27.592Z,99953.16
2022-12-31T12:03:03.013Z,99946.39
2022-12-31T12:05:32.825Z,99955.24
2022-12-31T12:08:01.401Z,99957.61
2022-12-31T12:10:37.172Z,99959.29
2022-12-31T12:13:15.257Z,99955.78
2022-12-31T12:15:49.627Z,99959.77
2022-12-31T12:18:28.597Z,99959.63
2022-12-31T12:21:25.501Z,99959.73
2022-12-31T12:24:19.332Z,99964.11
2022-12-31T12:26:47.100Z,99963.50
2022-12-31T12:29:21.408Z,99970.10
2022-12-31T12:32:19.804Z,99977.89
2022-12-31T12:34:49.968Z,99981.25
2022-12-31T12:37:24.974Z,99979.30
2022-12-31T12:40:18.743Z,99981.31
2022-12-31T12:42:49.210Z,99991.36
2022-12-31T12:45:20.767Z,99986.27
2022-12-31T12:47:55.245Z,99988.39
2022-12-31T12:50:26.576Z,99988.16
2022-12-31T12:53:16.176Z,99987.86
2022-12-31T12:56:20.296Z,99990.01
2022-12-31T12:59:06.572Z,99984.64
2022-12-31T13:02:03.810Z,99987.27
2022-12-31T13:04:55.302Z,99993.92
2022-12-31T13:07:23.641Z,99995.92
2022-12-31T13:10:19.381Z,99996.45
2022-12-31T13:16:00.504Z,99997.63
2022-12-31T13:19:02.424Z,99992.97
2022-12-31T13:21:35.606Z,99994.27
2022-12-31T13:24:40.036Z,99991.47
2022-12-31T13:27:17.773Z,100003.27
2022-12-31T13:29:47.816Z,99994.20
2022-12-31T13:32:23.588Z,99997.15
2022-12-31T13:34:57.603Z,100005.11
2022-12-31T13:37:31.125Z,100004.00
2022-12-31T13:40:07.753Z,100008.16
2022-12-31T13:42:42.048Z,100013.29
2022-12-31T13:45:20.477Z,100014.73
2022-12-31T13:47:59.612Z,100009.80
2022-12-31T13:50:37.532Z,100015.31
2022-12-31T13:53:20.051Z,100018.34
2022-12-31T13:55:56.879Z,100024.30
2022-12-31T13:58:44.511Z,100028.02
2022-12-31T14:01:23.577Z,100023.83
2022-12-31T14:03:56.637Z,100015.42
2022-12-31T14:06:50.011Z,100026.28
2022-12-31T14:09:27.703Z,100033.39
2022-12-31T14:12:13.177Z,100043.24
2022-12-31T14:14:54.590Z,100041.69
2022-12-31T14:17:58.287Z,100037.44
2022-12-31T14:20:49.600Z,100042.50
2022-12-31T14:23:38.988Z,100044.92
2022-12-31T14:26:16.805Z,100045.27
2022-12-31T14:29:04.152Z,100042.71
2022-12-31T14:31:49.400Z,100043.36
2022-12-31T14:35:11.192Z,100041.14
2022-12-31T14:38:23.104Z,100046.99
2022-12-31T14:41:12.085Z,100048.51
2022-12-31T14:44:20.469Z,100052.23
2022-12-31T14:47:07.125Z,100054.99
2022-12-31T14:49:52.893Z,100047.05
2022-12-31T14:52:22.792Z,100050.87
2022-12-31T14:55:08.672Z,100055.31
2022-12-31T14:58:09.560Z,100054.57
2022-12-31T15:00:30.003Z,100058.58
2022-12-31T15:03:03.244Z,100055.67
2022-12-31T15:05:36.358Z,100053.70
2022-12-31T15:08:09.471Z,100050.75
2022-12-31T15:11:03.898Z,100047.02
2022-12-31T15:13:45.350Z,100048.27
2022-12-31T15:16:12.892Z,100051.43
2022-12-31T15:19:12.543Z,100051.72
2022-12-31T15:22:02.310Z,100049.38
2022-12-31T15:24:30.468Z,100040.19
2022-12-31T15:27:01.160Z,100041.94
2022-12-31T15:29:43.059Z,100043.52
2022-12-31T15:32:19.801Z,100049.13
2022-12-31T15:34:46.820Z,100054.60
2022-12-31T15:37:36.318Z,100052.02
2022-12-31T15:40:19.320Z,100053.64
2022-12-31T15:42:52.315Z,100057.51
2022-12-31T15:45:27.083Z,100065.95
2022-12-31T15:48:00.031Z,100072.61
2022-12-31T15:50:29.549Z,100075.64
2022-12-31T15:52:59.866Z,100076.23
2022-12-31T15:55:33.556Z,100080.41
2022-12-31T15:58:10.754Z,100085.87
2022-12-31T16:01:00.395Z,100094.86
2022-12-31T16:03:31.368Z,100092.98
2022-12-31T16:06:26.100Z,100096.54
2022-12-31T16:08:55.251Z,100101.27
2022-12-31T16:11:30.039Z,100098.92
2022-12-31T16:13:59.620Z,100103.30
2022-12-31T16:16:31.043Z,100111.73
2022-12-31T16:19:00.591Z,100116.13
2022-12-31T16:21:38.830Z,100117.20
2022-12-31T16:24:30.279Z,100120.30
2022-12-31T16:27:05.602Z,100112.43
2022-12-31T16:29:42.922Z,100128.48
2022-12-31T16:32:15.948Z,100128.36
2022-12-31T16:34:44.606Z,100123.17
2022-12-31T16:37:19.001Z,100127.33
2022-12-31T16:39:57.678Z,100122.38
2022-12-31T16:42:27.886Z,100122.91
2022-12-31T16:44:58.087Z,100126.88
2022-12-31T16:47:36.030Z,100130.34
2022-12-31T16:50:14.390Z,100132.59
2022-12-31T16:52:48.504Z,100127.85
2022-12-31T16:55:24.274Z,100126.31
2022-12-31T16:58:01.974Z,100130.64
2022-12-31T17:00:32.566Z,100132.61
2022-12-31T17:03:15.370Z,100132.98
2022-12-31T17:06:06.077Z,100128.55
2022-12-31T17:08:43.140Z,100131.80
2022-12-31T17:11:50.056Z,100133.47
2022-12-31T17:14:22.949Z,100139.20
2022-12-31T17:17:02.250Z,100143.36
2022-12-31T17:19:47.658Z,100141.79
2022-12-31T17:22:36.931Z,100147.74
2022-12-31T17:25:24.407Z,100153.23
2022-12-31T17:28:01.431Z,100151.09
2022-12-31T17:30:33.349Z,100151.31
2022-12-31T17:33:03.665Z,100151.81
2022-12-31T17:35:33.034Z,100151.33
2022-12-31T17:38:22.253Z,100159.36
2022-12-31T17:40:54.534Z,100156.93
2022-12-31T17:43:23.265Z,100155.35
2022-12-31T17:45:52.658Z,100160.92
2022-12-31T17:48:24.536Z,100166.95
2022-12-31T17:50:58.838Z,100175.68
2022-12-31T17:53:26.284Z,100182.15
2022-12-31T17:55:56.918Z,100185.88
2022-12-31T17:58:29.960Z,100186.95
2022-12-31T18:00:59.086Z,100180.04
2022-12-31T18:03:26.820Z,100184.10
2022-12-31T18:05:54.431Z,100189.01
2022-12-31T18:08:22.697Z,100189.80
2022-12-31T18:10:51.295Z,100181.95
2022-12-31T18:13:22.770Z,100188.37
2022-12-31T18:15:54.250Z,100186.12
2022-12-31T18:18:33.428Z,100193.70
2022-12-31T18:21:05.525Z,100190.92
2022-12-31T18:23:41.126Z,100195.56
2022-12-31T18:26:17.316Z,100193.39
2022-12-31T18:28:45.374Z,100192.69
2022-12-31T18:31:19.393Z,100189.27
2022-12-31T18:33:47.117Z,100188.76
2022-12-31T18:36:16.471Z,100186.83
2022-12-31T18:38:43.558Z,100176.86
2022-12-31T18:41:18.133Z,100184.10
2022-12-31T18:43:45.562Z,100185.10
2022-12-31T18:46:15.412Z,100183.96
2022-12-31T18:48:43.760Z,100185.90
2022-12-31T18:51:20.135Z,100191.91
2022-12-31T18:53:47.656Z,100188.64
2022-12-31T18:56:17.923Z,100183.98
2022-12-31T18:58:45.789Z,100182.17
2022-12-31T19:01:26.926Z,100179.88
2022-12-31T19:04:02.598Z,100182.02
2022-12-31T19:06:30.497Z,100181.33
2022-12-31T19:09:00.662Z,100180.29
2022-12-31T19:11:28.174Z,100174.02
2022-12-31T19:13:55.511Z,100179.88
2022-12-31T19:16:22.497Z,100177.59
2022-12-31T19:18:50.837Z,100183.52
2022-12-31T19:21:21.979Z,100182.85
2022-12-31T19:23:50.443Z,100182.89
2022-12-31T19:26:20.569Z,100183.26
2022-12-31T19:28:49.484Z,100174.04
2022-12-31T19:31:17.077Z,100178.06
2022-12-31T19:33:44.479Z,100173.39
2022-12-31T19:36:17.078Z,100173.51
2022-12-31T19:38:45.330Z,100174.05
2022-12-31T19:41:18.297Z,100174.87
2022-12-31T19:43:47.009Z,100176.21
2022-12-31T19:46:16.163Z,100176.13
2022-12-31T19:48:44.897Z,100177.95
2022-12-31T19:51:17.570Z,100176.95
2022-12-31T19:53:45.336Z,100172.44
2022-12-31T19:56:15.547Z,100170.85
2022-12-31T19:58:43.555Z,100177.63
2022-12-31T20:01:29.020Z,100180.40
2022-12-31T20:03:56.289Z,100185.88
2022-12-31T20:06:23.505Z,100183.60
2022-12-31T20:08:50.659Z,100184.27
2022-12-31T20:11:22.730Z,100180.73
2022-12-31T20:13:54.350Z,100185.46
2022-12-31T20:16:26.125Z,100185.23
2022-12-31T20:18:53.608Z,100188.67
2022-12-31T20:21:24.190Z,100181.60
2022-12-31T20:23:53.369Z,100187.41
2022-12-31T20:26:22.495Z,100177.21
2022-12-31T20:28:50.498Z,100187.23
2022-12-31T20:31:20.561Z,100187.85
2022-12-31T20:33:47.816Z,100190.60
2022-12-31T20:36:16.494Z,100189.31
2022-12-31T20:38:44.153Z,100191.52
2022-12-31T20:41:19.348Z,100192.80
2022-12-31T20:43:47.315Z,100195.39
2022-12-31T20:46:19.225Z,100188.66
2022-12-31T20:48:48.063Z,100187.05
2022-12-31T20:51:16.548Z,100185.89
2022-12-31T20:53:52.042Z,100188.83
2022-12-31T20:56:21.894Z,100184.60
2022-12-31T20:58:48.974Z,100186.27
2022-12-31T21:01:17.025Z,100187.58
2022-12-31T21:06:34.988Z,100186.84
2022-12-31T21:09:04.520Z,100190.33
2022-12-31T21:11:50.495Z,100192.52
2022-12-31T21:14:17.520Z,100196.44
2022-12-31T21:16:44.426Z,100198.96
2022-12-31T21:19:11.832Z,100189.45
2022-12-31T21:21:38.991Z,100188.46
2022-12-31T21:24:06.770Z,100192.98
2022-12-31T21:26:34.079Z,100191.75
2022-12-31T21:29:01.229Z,100191.95
2022-12-31T21:31:28.409Z,100183.05
2022-12-31T21:33:55.807Z,100183.41
2022-12-31T21:36:23.142Z,100178.87
2022-12-31T21:38:50.755Z,100181.77
2022-12-31T21:41:36.778Z,100179.27
2022-12-31T21:44:03.801Z,100179.95
2022-12-31T21:46:31.285Z,100180.63
2022-12-31T21:48:59.850Z,100175.96
2022-12-31T21:51:28.350Z,100179.46
2022-12-31T21:53:56.011Z,100183.13
2022-12-31T21:56:23.751Z,100183.70
2022-12-31T21:59:14.975Z,100183.36
2022-12-31T22:02:01.193Z,100193.31
2022-12-31T22:05:00.937Z,100188.11
2022-12-31T22:07:16.405Z,100189.00
2022-12-31T22:09:43.425Z,100181.08
2022-12-31T22:12:10.541Z,100171.08
2022-12-31T22:14:37.952Z,100177.91
2022-12-31T22:17:05.167Z,100189.73
2022-12-31T22:19:39.314Z,100187.05
2022-12-31T22:22:19.525Z,100193.52
2022-12-31T22:24:46.685Z,100194.90
2022-12-31T22:27:28.244Z,100194.39
2022-12-31T22:29:57.571Z,100193.69
2022-12-31T22:32:25.558Z,100193.19
2022-12-31T22:34:53.011Z,100189.68
2022-12-31T22:37:54.799Z,100187.76
2022-12-31T22:40:08.484Z,100183.61
2022-12-31T22:42:35.853Z,100184.55
2022-12-31T22:45:04.400Z,100178.85
2022-12-31T22:47:31.498Z,100176.66
2022-12-31T22:49:58.936Z,100173.44
2022-12-31T22:52:25.771Z,100170.89
2022-12-31T22:54:52.603Z,100179.04
2022-12-31T22:57:20.367Z,100184.00
2022-12-31T22:59:47.635Z,100183.34
2022-12-31T23:02:15.909Z,100192.23
2022-12-31T23:04:42.880Z,100191.62
2022-12-31T23:07:09.908Z,100194.91
2022-12-31T23:09:55.483Z,100196.45
2022-12-31T23:12:22.554Z,100192.48
2022-12-31T23:15:08.314Z,100184.83
2022-12-31T23:17:54.517Z,100189.34
2022-12-31T23:20:42.415Z,100187.33
2022-12-31T23:23:14.369Z,100184.55
2022-12-31T23:25:47.632Z,100178.11
2022-12-31T23:28:18.310Z,100185.02
2022-12-31T23:30:46.017Z,100179.64
2022-12-31T23:33:16.651Z,100176.86
2022-12-31T23:35:44.408Z,100171.72
2022-12-31T23:38:12.689Z,100172.05
2022-12-31T23:40:39.854Z,100173.43
2022-12-31T23:43:20.297Z,100170.92
2022-12-31T23:45:49.956Z,100178.98
2022-12-31T23:48:17.181Z,100187.36
2022-12-31T23:50:49.215Z,100196.75
2022-12-31T23:53:19.874Z,100205.34
2022-12-31T23:55:46.900Z,100207.48
2022-12-31T23:58:14.656Z,100207.08
